Terminal Aerodrome Forecast
Issued by NWS

Current Version | Previous Version | Text Only | Print | Product List | Glossary On
Versions: 1 2 3 4 5 6 7 8 9 10 11 12 13 14 15 16
000 FTUS41 KBTV 180520 TAFMPV TAF KMPV 180520Z 1806/1906 16010G16KT P6SM BKN060 FM180900 23006KT P6SM SCT060 WS020/28035KT FM181100 23005KT P6SM FEW200 FM181400 29005KT P6SM FEW250 FM182200 21004KT P6SM SKC=

USA.gov is the U.S. government's official web portal to all federal, state and local government web resources and services.